Bad Axe, MI

2:11 PM EDT on April 19, 2015 (GMT -0400)
Huron Doll Repair Bad Axe (989) 269-7766 | | Change Station
CLOSE
Current Station
Personal Weather Station
Location: Bad Axe, MI
Elevation: 761 ft
Nearby Weather Stations

Elev 761 ft 43.80 °N, 83.02 °W | Updated 6 minutes ago

Clear
Clear
56.6 °F
Feels Like 56.6 °F
N
2.0
Wind Variable Wind from East

Today
High -- | Low -- °F
--% Chance of Precip.
Yesterday
High -- | Low -- °F
Precip. -- in
6:42 AM 8:20 PM
New Moon, 1% visible
Pressure 29.94 in
Visibility 10.0 miles
Clouds Clear
Dew Point 34 °F
Humidity 43%
Rainfall 0.00 in
Snow Depth Not available.
UV 9 out of 12
Pollen 9.80 out of 12
Air Quality Not available.
Flu Activity Regional
METAR KBAX 191754Z AUTO 11012G23KT 080V140 10SM CLR 13/M01 A2994 RMK AO2 T01281015

More Conditions Fewer Conditions

Pressure 29.94 in
Visibility 10.0 miles
Clouds Clear
Dew Point 34 °F
Humidity 43%
Rainfall 0.00 in
Snow Depth Not available.
UV 9 out of 12
Pollen 9.80 out of 12
Air Quality Not available.
Flu Activity Regional
METAR KBAX 191754Z AUTO 11012G23KT 080V140 10SM CLR 13/M01 A2994 RMK AO2 T01281015

More Conditions Fewer Conditions

10-Day Weather Forecast

Almanac

Astronomy

Apr. 19, 2015 Rise Set
Actual Time
Civil Twilight
Nautical Twilight
Astronomical Twilight
Moon
Length of Visible Light
Length of Day
Tomorrow will be .
, % of the Moon is Illuminated

Today's Extremes

State Highs State Lows

Community

WunderPhotos

Upload Photos

1,814,894 photos uploaded!

WunderBlogs® & News

Nearby

Air Quality

  Air Quality AQ Index Pollutant
Not available.

Snow Depth

Station Depth Elevation

Earthquake Activity

City Distance Mag. Time & Date
Minimum magnitude displayed is 2.5.

Coastal Water Temperatures

Place Temperature

Stations

Nearby Weather Stations

Station Location Temp. Windchill Dew Point Humidity Wind Precip. Elev Updated Type